Time;durP1;ratioP1;P1;durP2;ratioP2;P2;SDS_P1;SDS_P2;PMS_P1;PMS_P2;Temp;Humidity;BMP_temperature;BMP_pressure;BME280_temperature;BME280_humidity;BME280_pressure;Samples;Min_cycle;Max_cycle;Signal;HPM_P1;HPM_P2
2023/01/20 00:00:12;;;;;;;68.60;37.70;;;0.90;92.30;;;;;;5069662;28;20526;-72
2023/01/20 00:02:37;;;;;;;68.32;37.25;;;0.80;92.30;;;;;;5071021;28;20029;-72
2023/01/20 00:05:04;;;;;;;67.15;36.63;;;0.80;92.30;;;;;;5059766;28;20962;-71
2023/01/20 00:07:29;;;;;;;66.20;36.08;;;0.70;92.50;;;;;;5053604;28;20107;-73
2023/01/20 00:09:55;;;;;;;67.30;36.90;;;0.70;92.70;;;;;;5063901;28;20708;-72
2023/01/20 00:12:21;;;;;;;64.18;33.65;;;0.60;92.70;;;;;;5065006;28;20793;-73
2023/01/20 00:14:46;;;;;;;66.68;34.70;;;0.60;92.70;;;;;;5063874;28;20085;-74
2023/01/20 00:17:12;;;;;;;64.03;33.35;;;0.60;92.60;;;;;;5065981;28;20102;-73
2023/01/20 00:19:37;;;;;;;59.60;32.58;;;0.60;92.70;;;;;;5061416;28;20362;-74
2023/01/20 00:22:03;;;;;;;60.47;32.75;;;0.60;92.70;;;;;;5058215;28;20048;-73
2023/01/20 00:24:29;;;;;;;56.10;31.95;;;0.60;92.80;;;;;;5047112;28;20031;-74
2023/01/20 00:26:54;;;;;;;60.03;31.48;;;0.60;92.80;;;;;;5068930;28;20048;-74
2023/01/20 00:29:20;;;;;;;58.83;31.65;;;0.60;92.90;;;;;;5064937;28;20028;-72
2023/01/20 00:31:46;;;;;;;59.63;32.28;;;0.60;92.80;;;;;;5060046;28;20033;-74
2023/01/20 00:34:11;;;;;;;61.08;32.05;;;0.60;92.70;;;;;;5060394;28;20069;-72
2023/01/20 00:36:37;;;;;;;58.45;32.70;;;0.60;92.70;;;;;;5057909;28;20041;-74
2023/01/20 00:39:04;;;;;;;59.08;31.17;;;0.60;92.70;;;;;;5065619;28;20154;-73
2023/01/20 00:41:29;;;;;;;56.42;30.95;;;0.70;92.70;;;;;;5061400;28;20044;-73
2023/01/20 00:43:55;;;;;;;58.85;31.55;;;0.60;92.60;;;;;;5060100;28;20028;-74
2023/01/20 00:46:22;;;;;;;60.03;31.70;;;0.60;92.60;;;;;;5059502;28;20905;-72
2023/01/20 00:48:48;;;;;;;55.83;30.00;;;0.60;92.50;;;;;;5052826;28;20492;-71
2023/01/20 00:51:14;;;;;;;52.53;29.85;;;0.50;92.40;;;;;;5051392;28;20040;-72
2023/01/20 00:53:40;;;;;;;52.30;30.15;;;0.40;92.40;;;;;;5043569;28;20100;-72
2023/01/20 00:56:06;;;;;;;56.85;31.63;;;0.40;92.30;;;;;;5065053;28;20032;-72
2023/01/20 00:58:32;;;;;;;58.03;32.80;;;0.40;92.40;;;;;;5054252;28;20485;-71
2023/01/20 01:00:59;;;;;;;59.67;32.55;;;0.30;92.40;;;;;;5054081;28;20036;-72
2023/01/20 01:03:29;;;;;;;57.33;32.55;;;0.30;92.50;;;;;;5061785;28;20465;-73
2023/01/20 01:06:11;;;;;;;60.40;32.90;;;0.40;92.50;;;;;;5056869;28;20030;-71
2023/01/20 01:08:36;;;;;;;61.50;35.40;;;0.40;92.50;;;;;;5066203;28;20032;-72
2023/01/20 01:11:03;;;;;;;62.70;34.75;;;0.40;92.60;;;;;;5045850;28;20165;-73
2023/01/20 01:13:30;;;;;;;62.70;33.58;;;0.40;92.60;;;;;;5063510;28;20028;-73
2023/01/20 01:15:55;;;;;;;62.92;33.40;;;0.30;92.60;;;;;;5060753;28;20357;-72
2023/01/20 01:18:21;;;;;;;68.30;34.78;;;0.30;92.60;;;;;;5059792;28;20552;-72
2023/01/20 01:20:47;;;;;;;72.88;35.53;;;0.30;92.70;;;;;;5066288;28;20546;-73
2023/01/20 01:23:12;;;;;;;64.53;35.08;;;0.40;92.80;;;;;;5050351;28;20544;-72
2023/01/20 01:25:38;;;;;;;69.60;33.20;;;0.30;92.80;;;;;;5060758;28;20481;-72
2023/01/20 01:28:04;;;;;;;63.80;32.78;;;0.30;92.70;;;;;;5066353;28;20040;-72
2023/01/20 01:30:30;;;;;;;62.67;31.98;;;0.20;92.70;;;;;;5065816;28;20460;-71
2023/01/20 01:32:55;;;;;;;64.75;33.22;;;0.30;92.80;;;;;;5058931;28;20037;-72
2023/01/20 01:35:21;;;;;;;67.03;34.97;;;0.30;92.80;;;;;;5062649;28;20085;-72
2023/01/20 01:37:47;;;;;;;67.97;33.63;;;0.30;92.90;;;;;;5063836;28;20031;-73
2023/01/20 01:40:12;;;;;;;60.47;32.90;;;0.30;92.90;;;;;;5041490;28;20033;-72
2023/01/20 01:42:38;;;;;;;62.70;33.92;;;0.30;93.00;;;;;;5061960;28;20056;-73
2023/01/20 01:45:10;;;;;;;59.88;31.15;;;0.40;93.00;;;;;;5055864;28;20103;-73
2023/01/20 01:47:53;;;;;;;62.28;31.35;;;0.40;93.10;;;;;;5060960;28;20043;-72
2023/01/20 01:50:31;;;;;;;63.75;33.03;;;0.40;93.10;;;;;;5059584;28;20072;-72
2023/01/20 01:52:58;;;;;;;57.97;29.58;;;0.40;93.10;;;;;;5062107;28;20147;-73
2023/01/20 01:55:27;;;;;;;57.03;30.70;;;0.40;93.10;;;;;;5053415;28;20100;-72
2023/01/20 01:57:54;;;;;;;60.03;30.60;;;0.50;93.10;;;;;;5073896;28;20142;-71
2023/01/20 02:00:20;;;;;;;58.10;30.85;;;0.50;93.10;;;;;;5074070;28;20206;-72
2023/01/20 02:02:46;;;;;;;62.40;31.63;;;0.60;93.20;;;;;;5066461;28;20086;-73
2023/01/20 02:05:13;;;;;;;59.08;31.75;;;0.60;93.10;;;;;;5068159;28;20037;-72
2023/01/20 02:07:39;;;;;;;62.35;31.52;;;0.60;93.10;;;;;;5057271;28;20030;-73
2023/01/20 02:10:05;;;;;;;54.42;29.35;;;0.60;93.00;;;;;;5067398;28;20060;-72
2023/01/20 02:12:31;;;;;;;61.05;30.55;;;0.60;93.00;;;;;;5074305;28;20130;-72
2023/01/20 02:15:00;;;;;;;55.17;30.50;;;0.60;93.00;;;;;;5081349;28;20033;-73
2023/01/20 02:17:38;;;;;;;59.28;31.17;;;0.60;92.90;;;;;;5060229;28;20307;-70
2023/01/20 02:20:07;;;;;;;55.25;28.20;;;0.60;92.90;;;;;;5059547;28;20035;-72
2023/01/20 02:22:38;;;;;;;56.55;27.40;;;0.60;92.90;;;;;;5059164;28;20453;-72
2023/01/20 02:25:29;;;;;;;50.38;27.25;;;0.60;92.90;;;;;;5059415;28;20054;-73
2023/01/20 02:28:28;;;;;;;56.00;28.20;;;0.60;92.80;;;;;;5066425;28;20098;-72
2023/01/20 02:31:03;;;;;;;53.78;28.88;;;0.60;92.80;;;;;;5064915;28;20514;-71
2023/01/20 02:33:35;;;;;;;49.45;27.83;;;0.60;92.80;;;;;;5061785;28;20137;-72
2023/01/20 02:36:17;;;;;;;49.03;26.88;;;0.60;92.70;;;;;;5055098;28;20039;-71
2023/01/20 02:39:01;;;;;;;52.13;26.55;;;0.60;92.70;;;;;;5064876;28;20024;-72
2023/01/20 02:41:34;;;;;;;49.33;25.55;;;0.60;92.70;;;;;;5070413;28;20090;-72
2023/01/20 02:44:22;;;;;;;43.22;25.48;;;0.60;92.70;;;;;;5067069;28;20094;-73
2023/01/20 02:46:58;;;;;;;48.53;25.90;;;0.60;92.60;;;;;;5071946;28;20040;-71
2023/01/20 02:49:33;;;;;;;50.53;25.80;;;0.60;92.60;;;;;;5062736;28;20492;-71
2023/01/20 02:52:13;;;;;;;44.00;26.00;;;0.60;92.60;;;;;;5057473;28;20423;-71
2023/01/20 02:54:43;;;;;;;46.60;27.10;;;0.60;92.60;;;;;;5054476;28;20021;-73
2023/01/20 02:57:13;;;;;;;48.40;26.48;;;0.50;92.50;;;;;;5051913;28;20044;-72
2023/01/20 02:59:43;;;;;;;46.83;27.48;;;0.50;92.50;;;;;;5062090;28;20029;-72
2023/01/20 03:02:14;;;;;;;49.50;27.38;;;0.50;92.50;;;;;;5056956;28;20044;-71
2023/01/20 03:04:51;;;;;;;53.08;26.73;;;0.50;92.50;;;;;;5065556;28;20488;-71
2023/01/20 03:07:21;;;;;;;47.10;26.23;;;0.40;92.40;;;;;;5066049;28;20068;-72
2023/01/20 03:09:50;;;;;;;48.30;26.63;;;0.40;92.50;;;;;;5061923;28;20029;-73
2023/01/20 03:12:44;;;;;;;44.72;25.98;;;0.40;92.50;;;;;;5064143;28;20040;-71
2023/01/20 03:15:11;;;;;;;46.33;24.83;;;0.40;92.50;;;;;;5058520;28;20452;-71
2023/01/20 03:17:37;;;;;;;46.33;25.90;;;0.40;92.60;;;;;;5060203;28;21021;-72
2023/01/20 03:20:03;;;;;;;46.70;25.42;;;0.50;92.60;;;;;;5067926;28;20102;-72
2023/01/20 03:22:30;;;;;;;48.47;25.45;;;0.50;92.60;;;;;;5065413;28;20044;-71
2023/01/20 03:24:58;;;;;;;44.28;25.42;;;0.60;92.50;;;;;;5066483;28;20023;-71
2023/01/20 03:27:25;;;;;;;44.88;24.48;;;0.60;92.40;;;;;;5057032;28;20113;-71
2023/01/20 03:29:51;;;;;;;46.13;26.45;;;0.60;92.30;;;;;;5061541;28;20063;-72
2023/01/20 03:32:21;;;;;;;45.55;24.75;;;0.60;92.20;;;;;;5062030;28;20653;-72
2023/01/20 03:34:47;;;;;;;43.90;26.20;;;0.60;92.20;;;;;;5070354;28;20055;-72
2023/01/20 03:37:12;;;;;;;48.72;27.05;;;0.60;92.20;;;;;;5062153;28;20052;-72
2023/01/20 03:39:39;;;;;;;43.45;25.02;;;0.60;92.20;;;;;;5070497;28;20543;-73
2023/01/20 03:42:32;;;;;;;47.67;27.17;;;0.70;92.00;;;;;;5065207;28;20524;-71
2023/01/20 03:45:34;;;;;;;42.97;23.52;;;0.80;91.80;;;;;;5063241;28;20028;-72
2023/01/20 03:48:35;;;;;;;45.60;26.92;;;0.80;91.70;;;;;;5051114;28;20066;-71
2023/01/20 03:51:17;;;;;;;47.30;24.45;;;0.80;91.70;;;;;;5044970;28;20558;-71
2023/01/20 03:53:58;;;;;;;48.25;25.13;;;0.90;91.70;;;;;;5060632;28;20035;-71
2023/01/20 03:57:02;;;;;;;43.92;25.98;;;0.90;91.50;;;;;;5044367;28;20040;-70
2023/01/20 03:59:32;;;;;;;43.65;25.02;;;0.90;91.50;;;;;;5024384;28;20079;-71
2023/01/20 04:02:01;;;;;;;46.72;23.50;;;0.90;91.30;;;;;;5062127;28;20025;-71
2023/01/20 04:04:28;;;;;;;42.88;23.20;;;0.90;91.40;;;;;;5064194;28;20029;-71
2023/01/20 04:06:54;;;;;;;42.63;25.63;;;0.90;91.30;;;;;;5056188;28;20087;-71
2023/01/20 04:09:26;;;;;;;38.55;23.23;;;0.90;91.30;;;;;;5062672;28;20024;-73
2023/01/20 04:11:52;;;;;;;38.47;24.42;;;1.00;91.30;;;;;;5049191;28;20253;-72
2023/01/20 04:14:18;;;;;;;43.28;24.05;;;1.00;91.40;;;;;;5073229;28;20028;-72
2023/01/20 04:16:56;;;;;;;38.63;23.52;;;1.00;91.50;;;;;;5065250;28;20036;-70
2023/01/20 04:19:24;;;;;;;38.85;22.65;;;1.10;91.70;;;;;;5062386;28;20337;-71
2023/01/20 04:22:01;;;;;;;40.38;24.27;;;1.10;91.70;;;;;;5052468;28;20132;-71
2023/01/20 04:24:40;;;;;;;35.78;21.60;;;1.10;91.80;;;;;;5069583;28;20040;-72
2023/01/20 04:27:06;;;;;;;41.05;24.02;;;1.10;91.90;;;;;;5061089;28;20048;-72
2023/01/20 04:29:32;;;;;;;42.95;23.35;;;1.20;91.90;;;;;;5061667;28;20068;-71
2023/01/20 04:31:59;;;;;;;36.72;22.48;;;1.20;91.90;;;;;;5060696;28;20174;-72
2023/01/20 04:34:24;;;;;;;38.05;23.10;;;1.20;91.80;;;;;;5053630;28;20029;-71
2023/01/20 04:36:50;;;;;;;36.60;21.70;;;1.30;91.80;;;;;;5044686;28;20064;-71
2023/01/20 04:39:15;;;;;;;39.38;22.88;;;1.30;91.80;;;;;;5063023;28;20538;-73
2023/01/20 04:41:41;;;;;;;38.90;22.80;;;1.30;91.70;;;;;;5068812;28;20032;-71
2023/01/20 04:44:07;;;;;;;41.42;23.35;;;1.20;91.60;;;;;;5062576;28;20668;-71
2023/01/20 04:46:32;;;;;;;38.90;21.98;;;1.20;91.50;;;;;;5072932;28;20417;-72
2023/01/20 04:48:58;;;;;;;35.95;21.90;;;1.30;91.50;;;;;;5074878;28;20043;-72
2023/01/20 04:51:24;;;;;;;37.85;21.85;;;1.30;91.40;;;;;;5080759;28;20028;-72
2023/01/20 04:53:49;;;;;;;35.13;22.23;;;1.20;91.40;;;;;;5070454;28;20032;-71
2023/01/20 04:56:15;;;;;;;37.35;22.15;;;1.30;91.40;;;;;;5070557;28;20040;-71
2023/01/20 04:58:41;;;;;;;34.42;20.27;;;1.30;91.30;;;;;;5065242;28;20044;-72
2023/01/20 05:01:07;;;;;;;38.63;22.42;;;1.30;91.30;;;;;;5072292;28;20395;-72
2023/01/20 05:03:33;;;;;;;34.38;22.15;;;1.30;91.20;;;;;;5048126;28;20562;-72
2023/01/20 05:05:59;;;;;;;35.80;21.17;;;1.30;91.20;;;;;;5073226;28;20035;-71
2023/01/20 05:08:25;;;;;;;31.13;20.75;;;1.30;91.20;;;;;;5064160;28;20036;-71
2023/01/20 05:10:50;;;;;;;36.05;21.58;;;1.30;91.20;;;;;;5062538;28;20037;-72
2023/01/20 05:13:16;;;;;;;33.45;21.13;;;1.30;91.30;;;;;;5062607;28;20021;-72
2023/01/20 05:15:43;;;;;;;30.25;20.20;;;1.40;91.30;;;;;;5064896;28;20417;-71
2023/01/20 05:18:09;;;;;;;33.53;19.77;;;1.40;91.30;;;;;;5063278;28;20073;-72
2023/01/20 05:20:34;;;;;;;30.90;19.33;;;1.40;91.20;;;;;;5064121;28;20033;-71
2023/01/20 05:23:00;;;;;;;33.97;19.88;;;1.40;91.20;;;;;;5062796;28;20048;-71
2023/01/20 05:25:26;;;;;;;32.00;20.08;;;1.40;91.30;;;;;;5062641;28;20734;-71
2023/01/20 05:27:51;;;;;;;35.13;19.20;;;1.40;91.30;;;;;;5069109;28;20027;-71
2023/01/20 05:30:17;;;;;;;30.42;18.60;;;1.50;91.30;;;;;;5059814;28;20033;-73
2023/01/20 05:32:49;;;;;;;32.40;19.10;;;1.50;91.30;;;;;;5058748;28;20652;-72
2023/01/20 05:35:15;;;;;;;26.58;17.60;;;1.50;91.20;;;;;;5055322;28;20043;-72
2023/01/20 05:37:40;;;;;;;28.23;18.13;;;1.50;91.30;;;;;;5059377;28;20358;-72
2023/01/20 05:40:07;;;;;;;28.65;16.75;;;1.60;91.30;;;;;;5060994;28;20029;-71
2023/01/20 05:42:32;;;;;;;30.88;18.20;;;1.60;91.20;;;;;;5057191;28;20056;-72
2023/01/20 05:44:58;;;;;;;26.60;16.80;;;1.60;91.20;;;;;;5038934;28;20016;-72
2023/01/20 05:47:24;;;;;;;28.70;16.98;;;1.60;91.10;;;;;;5059518;28;20596;-73
2023/01/20 05:49:49;;;;;;;28.88;18.05;;;1.60;91.10;;;;;;5059435;28;20024;-74
2023/01/20 05:52:15;;;;;;;27.70;17.00;;;1.60;91.10;;;;;;5053817;28;20044;-73
2023/01/20 05:54:41;;;;;;;32.35;17.60;;;1.60;91.20;;;;;;5061842;28;20445;-72
2023/01/20 05:57:07;;;;;;;27.75;17.80;;;1.60;91.30;;;;;;5061425;28;20409;-73
2023/01/20 05:59:32;;;;;;;26.73;18.15;;;1.70;91.20;;;;;;5065785;28;20040;-71
2023/01/20 06:01:58;;;;;;;31.00;18.00;;;1.70;91.20;;;;;;5043670;28;20115;-72
2023/01/20 06:04:24;;;;;;;28.35;17.05;;;1.70;91.20;;;;;;5040272;28;20032;-70
2023/01/20 06:06:49;;;;;;;27.73;16.67;;;1.80;91.20;;;;;;5064946;28;20037;-70
2023/01/20 06:09:15;;;;;;;26.17;18.10;;;1.80;91.20;;;;;;5064189;28;20484;-74
2023/01/20 06:11:40;;;;;;;28.52;17.02;;;1.80;91.20;;;;;;5051164;28;20144;-74
2023/01/20 06:14:06;;;;;;;26.35;17.45;;;1.80;91.30;;;;;;5064307;28;20385;-73
2023/01/20 06:16:32;;;;;;;30.45;17.80;;;1.90;91.30;;;;;;5040414;28;20508;-72
2023/01/20 06:18:58;;;;;;;24.75;15.65;;;1.90;91.30;;;;;;5051860;28;20033;-71
2023/01/20 06:21:24;;;;;;;25.80;17.27;;;1.90;91.30;;;;;;5052142;28;20051;-73
2023/01/20 06:23:49;;;;;;;24.40;17.10;;;2.00;91.30;;;;;;5052808;28;20095;-71
2023/01/20 06:26:15;;;;;;;30.08;17.20;;;2.00;91.30;;;;;;5054797;28;20040;-72
2023/01/20 06:28:41;;;;;;;27.50;16.45;;;2.10;91.30;;;;;;5058851;28;20031;-72
2023/01/20 06:31:12;;;;;;;29.63;15.82;;;2.10;91.30;;;;;;5049642;28;20158;-71
2023/01/20 06:33:38;;;;;;;27.88;15.63;;;2.10;91.30;;;;;;5053609;28;20164;-72
2023/01/20 06:36:05;;;;;;;25.02;15.52;;;2.10;91.30;;;;;;5064043;28;20561;-71
2023/01/20 06:38:32;;;;;;;26.38;16.05;;;2.10;91.30;;;;;;5063367;28;20513;-72
2023/01/20 06:41:00;;;;;;;28.33;17.38;;;2.10;91.30;;;;;;5059753;28;20120;-72
2023/01/20 06:43:28;;;;;;;24.23;15.07;;;2.10;91.40;;;;;;5054739;28;20028;-72
2023/01/20 06:45:59;;;;;;;28.67;16.50;;;2.10;91.40;;;;;;5060862;28;20086;-71
2023/01/20 06:48:24;;;;;;;27.38;15.73;;;2.10;91.40;;;;;;5059112;28;20017;-71
2023/01/20 06:50:50;;;;;;;24.40;16.23;;;2.10;91.40;;;;;;5059512;28;20044;-72
2023/01/20 06:53:16;;;;;;;29.17;16.00;;;2.10;91.40;;;;;;5045916;28;20043;-72
2023/01/20 06:55:41;;;;;;;22.77;15.75;;;2.10;91.40;;;;;;5058979;28;20036;-72
2023/01/20 06:58:07;;;;;;;25.98;16.08;;;2.10;91.40;;;;;;5063779;28;20091;-72
2023/01/20 07:00:32;;;;;;;26.67;16.08;;;2.10;91.50;;;;;;5058883;28;20424;-71
2023/01/20 07:02:58;;;;;;;26.08;14.52;;;2.10;91.50;;;;;;5063546;28;20070;-72
2023/01/20 07:05:24;;;;;;;26.45;16.70;;;2.10;91.50;;;;;;5062129;28;20032;-71
2023/01/20 07:07:50;;;;;;;21.85;15.30;;;2.10;91.60;;;;;;5066385;28;20507;-71
2023/01/20 07:10:15;;;;;;;23.13;16.48;;;2.10;91.50;;;;;;5045517;28;20016;-71
2023/01/20 07:12:41;;;;;;;27.48;16.15;;;2.10;91.50;;;;;;5055469;28;20123;-71
2023/01/20 07:15:07;;;;;;;26.80;15.25;;;2.10;91.50;;;;;;5060407;28;20024;-74
2023/01/20 07:17:33;;;;;;;24.17;16.33;;;2.10;91.50;;;;;;5042544;28;20540;-71
2023/01/20 07:19:58;;;;;;;23.45;15.55;;;2.10;91.50;;;;;;5063156;28;20043;-72
2023/01/20 07:22:24;;;;;;;27.52;16.13;;;2.10;91.50;;;;;;5059705;28;20052;-71
2023/01/20 07:24:50;;;;;;;26.58;15.27;;;2.10;91.50;;;;;;5061570;28;20036;-71
2023/01/20 07:27:16;;;;;;;25.92;16.83;;;2.10;91.60;;;;;;5062892;28;20059;-72
2023/01/20 07:29:41;;;;;;;26.08;15.40;;;2.10;91.60;;;;;;5051714;28;20029;-71
2023/01/20 07:32:07;;;;;;;29.88;16.15;;;2.10;91.60;;;;;;5054754;28;20045;-72
2023/01/20 07:34:33;;;;;;;26.23;15.63;;;2.10;91.50;;;;;;5058685;28;20029;-72
2023/01/20 07:37:01;;;;;;;33.22;17.10;;;2.00;91.60;;;;;;5055411;28;20052;-71
2023/01/20 07:39:27;;;;;;;30.17;15.98;;;2.00;91.60;;;;;;5070432;28;20115;-71
2023/01/20 07:41:53;;;;;;;29.35;15.75;;;2.00;91.70;;;;;;5065058;28;20123;-72
2023/01/20 07:44:18;;;;;;;25.30;15.63;;;2.00;91.70;;;;;;5070273;28;20020;-72
2023/01/20 07:46:44;;;;;;;32.25;15.82;;;2.10;91.80;;;;;;5058854;28;20068;-73
2023/01/20 07:49:10;;;;;;;26.70;15.90;;;2.10;91.80;;;;;;5058729;28;20090;-71
2023/01/20 07:51:36;;;;;;;32.53;16.92;;;2.10;91.80;;;;;;5058691;28;20033;-71
2023/01/20 07:54:03;;;;;;;27.25;16.42;;;2.10;91.90;;;;;;5060419;28;20133;-72
2023/01/20 07:56:29;;;;;;;29.00;16.45;;;2.10;91.80;;;;;;5058511;28;20143;-73
2023/01/20 07:58:55;;;;;;;25.80;15.57;;;2.10;91.70;;;;;;5052128;28;20047;-74
2023/01/20 08:01:28;;;;;;;24.75;14.93;;;2.10;91.80;;;;;;5057958;28;20452;-73
2023/01/20 08:03:54;;;;;;;30.80;16.40;;;2.00;91.80;;;;;;5057279;28;20027;-74
2023/01/20 08:06:22;;;;;;;25.38;15.48;;;2.10;91.90;;;;;;5066320;28;20032;-72
2023/01/20 08:08:48;;;;;;;25.77;14.65;;;2.10;91.90;;;;;;5060492;28;20035;-73
2023/01/20 08:11:16;;;;;;;27.90;15.40;;;2.10;92.00;;;;;;5063972;28;20166;-72
2023/01/20 08:13:42;;;;;;;24.05;14.30;;;2.10;92.00;;;;;;5062596;28;20021;-73
2023/01/20 08:16:11;;;;;;;31.58;17.45;;;2.10;92.00;;;;;;5061954;28;20044;-74
2023/01/20 08:18:37;;;;;;;34.70;18.10;;;2.10;92.00;;;;;;5062813;28;20484;-72
2023/01/20 08:21:06;;;;;;;26.60;15.77;;;2.10;92.00;;;;;;5067235;28;20071;-74
2023/01/20 08:23:33;;;;;;;27.65;15.30;;;2.20;92.20;;;;;;5072411;28;20052;-74
2023/01/20 08:26:01;;;;;;;24.15;13.65;;;2.40;92.30;;;;;;5076923;28;20020;-72
2023/01/20 08:28:28;;;;;;;29.67;14.18;;;2.40;92.40;;;;;;5063285;28;20020;-73
2023/01/20 08:30:53;;;;;;;25.27;13.77;;;2.40;92.40;;;;;;5065393;28;20047;-73
2023/01/20 08:33:19;;;;;;;25.13;13.15;;;2.50;92.50;;;;;;5061744;28;20000;-73
2023/01/20 08:35:46;;;;;;;21.15;12.13;;;2.60;92.50;;;;;;5065021;28;20085;-74
2023/01/20 08:38:11;;;;;;;28.17;13.55;;;2.60;92.50;;;;;;5068791;28;20074;-72
2023/01/20 08:40:40;;;;;;;20.73;12.30;;;2.60;92.40;;;;;;5065766;28;20044;-73
2023/01/20 08:43:06;;;;;;;25.42;12.80;;;2.60;92.30;;;;;;5064644;28;20028;-73
2023/01/20 08:45:32;;;;;;;27.42;13.50;;;2.70;92.30;;;;;;5075498;28;20103;-73
2023/01/20 08:47:58;;;;;;;21.92;11.32;;;2.70;92.30;;;;;;5072504;28;20052;-73
2023/01/20 08:50:24;;;;;;;27.98;11.98;;;2.80;92.20;;;;;;5063100;28;20051;-73
2023/01/20 08:52:50;;;;;;;23.00;11.93;;;2.90;92.20;;;;;;5063040;28;20108;-73
2023/01/20 08:55:17;;;;;;;23.75;11.65;;;3.10;92.00;;;;;;5069343;28;20083;-72
2023/01/20 08:57:44;;;;;;;23.75;11.27;;;3.10;91.80;;;;;;5071547;28;20725;-71
2023/01/20 09:00:10;;;;;;;29.83;11.88;;;3.10;91.70;;;;;;5059403;28;20031;-72
2023/01/20 09:02:36;;;;;;;24.60;11.95;;;3.10;91.60;;;;;;5058586;28;20066;-72
2023/01/20 09:05:03;;;;;;;26.48;11.52;;;3.20;91.60;;;;;;5059594;28;20025;-72
2023/01/20 09:07:29;;;;;;;25.33;12.32;;;3.30;91.40;;;;;;5062069;28;20098;-71
2023/01/20 09:09:55;;;;;;;19.05;12.38;;;3.40;91.20;;;;;;5064956;28;20032;-72
2023/01/20 09:12:21;;;;;;;22.52;11.32;;;3.50;91.20;;;;;;5061894;28;20052;-72
2023/01/20 09:14:47;;;;;;;22.05;10.10;;;3.60;90.80;;;;;;5058622;28;20040;-71
2023/01/20 09:17:13;;;;;;;22.20;11.05;;;3.60;90.50;;;;;;5063259;28;20460;-71
2023/01/20 09:19:39;;;;;;;24.77;11.32;;;3.60;90.20;;;;;;5062476;28;20037;-71
2023/01/20 09:22:05;;;;;;;22.67;12.45;;;3.60;90.30;;;;;;5061320;28;20143;-73
2023/01/20 09:24:31;;;;;;;20.63;13.00;;;3.70;90.30;;;;;;5064587;28;20214;-72
2023/01/20 09:26:57;;;;;;;27.58;13.32;;;3.70;90.10;;;;;;5061458;28;20033;-72
2023/01/20 09:29:23;;;;;;;23.92;12.52;;;3.70;90.10;;;;;;5048156;28;20130;-72
2023/01/20 09:31:52;;;;;;;27.15;11.48;;;3.80;90.20;;;;;;5062254;28;20079;-73
2023/01/20 09:34:23;;;;;;;21.00;10.68;;;3.80;89.90;;;;;;5067306;28;20039;-73
2023/01/20 09:36:54;;;;;;;19.23;10.60;;;3.90;89.80;;;;;;5081601;28;20040;-73
2023/01/20 09:45:25;;;;;;;26.98;13.55;;;4.00;89.60;;;;;;5064891;28;20086;-71
2023/01/20 09:48:00;;;;;;;21.23;12.35;;;4.00;89.40;;;;;;5058002;28;20039;-73
2023/01/20 09:53:47;;;;;;;21.80;10.55;;;4.10;89.40;;;;;;5050707;28;20532;-74
2023/01/20 09:56:16;;;;;;;23.42;12.50;;;4.10;89.30;;;;;;5066498;28;20040;-73
2023/01/20 09:59:09;;;;;;;21.20;12.43;;;4.10;89.50;;;;;;5065263;28;20277;-73
2023/01/20 10:01:38;;;;;;;26.90;12.60;;;4.20;89.50;;;;;;5057066;28;20039;-72
2023/01/20 10:04:13;;;;;;;23.08;12.85;;;4.20;89.40;;;;;;5071847;28;20020;-73
2023/01/20 10:06:38;;;;;;;;;;;4.30;89.30;;;;;;5064017;28;20072;-74
2023/01/20 10:09:20;;;;;;;29.42;12.15;;;4.30;89.20;;;;;;5070465;28;19950;-73
2023/01/20 10:11:48;;;;;;;26.67;11.30;;;4.40;89.20;;;;;;5062081;28;20043;-74
2023/01/20 10:14:28;;;;;;;23.00;11.75;;;4.40;89.10;;;;;;5064946;28;20059;-73
2023/01/20 10:17:00;;;;;;;26.48;13.20;;;4.50;89.10;;;;;;5059506;28;20037;-72
2023/01/20 10:19:33;;;;;;;20.65;10.60;;;4.60;89.10;;;;;;5053607;28;20036;-74
2023/01/20 10:22:28;;;;;;;25.80;11.52;;;4.60;89.20;;;;;;5052401;28;20144;-74
2023/01/20 10:25:06;;;;;;;23.30;11.10;;;4.70;89.30;;;;;;5057641;28;20028;-73
2023/01/20 10:27:36;;;;;;;24.88;11.95;;;5.00;89.10;;;;;;5061674;28;20101;-72
2023/01/20 10:30:14;;;;;;;24.67;12.38;;;5.10;89.00;;;;;;5066763;28;20335;-73
2023/01/20 10:33:01;;;;;;;14.98;10.32;;;5.50;88.70;;;;;;5057736;28;20086;-73
2023/01/20 10:35:30;;;;;;;18.80;9.43;;;5.60;87.60;;;;;;5057222;28;20025;-72
2023/01/20 10:37:57;;;;;;;18.63;10.25;;;5.60;87.00;;;;;;5060318;28;20032;-73
2023/01/20 10:40:42;;;;;;;27.10;11.18;;;5.80;86.90;;;;;;5048693;28;20037;-73
2023/01/20 10:43:13;;;;;;;20.97;9.30;;;6.00;86.60;;;;;;5065057;28;20012;-74
2023/01/20 10:46:16;;;;;;;17.73;9.07;;;5.90;85.80;;;;;;5064140;28;20029;-74
2023/01/20 10:49:19;;;;;;;19.92;9.60;;;5.90;86.20;;;;;;5059782;28;20017;-71
2023/01/20 10:52:03;;;;;;;20.60;10.25;;;6.00;86.20;;;;;;5060071;28;20047;-74
2023/01/20 10:54:52;;;;;;;23.42;9.93;;;6.10;86.00;;;;;;5065967;28;20448;-73
2023/01/20 10:57:18;;;;;;;26.10;12.48;;;6.10;85.70;;;;;;5066526;28;20036;-74
2023/01/20 10:59:52;;;;;;;24.17;12.23;;;6.00;85.80;;;;;;5079521;28;20032;-74
2023/01/20 11:02:21;;;;;;;;;;;5.90;86.00;;;;;;5071469;28;20028;-75
2023/01/20 11:04:57;;;;;;;17.65;9.15;;;6.00;85.80;;;;;;5063734;28;20363;-76
2023/01/20 11:07:24;;;;;;;29.50;23.17;;;5.80;85.60;;;;;;5066797;28;20040;-75
2023/01/20 11:09:50;;;;;;;18.50;10.50;;;5.90;86.00;;;;;;5077735;28;20039;-73
2023/01/20 11:12:19;;;;;;;22.15;9.05;;;5.80;85.90;;;;;;5061089;28;20021;-71
2023/01/20 11:14:46;;;;;;;20.42;10.10;;;6.10;86.10;;;;;;5073476;28;20547;-71
2023/01/20 11:17:17;;;;;;;16.77;8.00;;;6.20;85.40;;;;;;5061767;28;20086;-72
2023/01/20 11:19:49;;;;;;;17.20;9.15;;;6.30;85.30;;;;;;5067036;28;20464;-72
2023/01/20 11:22:22;;;;;;;18.77;8.20;;;6.40;85.10;;;;;;5064061;28;20365;-73
2023/01/20 11:24:53;;;;;;;19.80;8.10;;;6.30;84.70;;;;;;5061563;28;20461;-73
2023/01/20 11:27:23;;;;;;;18.55;8.82;;;6.30;85.00;;;;;;5056310;28;20402;-73
2023/01/20 11:30:07;;;;;;;16.45;7.78;;;6.30;84.50;;;;;;5054553;28;20493;-72
2023/01/20 11:32:38;;;;;;;23.85;8.45;;;6.10;85.50;;;;;;5051089;28;20387;-72
2023/01/20 11:35:23;;;;;;;17.88;7.93;;;6.20;85.70;;;;;;5059092;28;20039;-71
2023/01/20 11:37:49;;;;;;;;;;;6.20;85.60;;;;;;5063703;28;20048;-73
2023/01/20 11:40:20;;;;;;;15.45;7.50;;;6.10;85.30;;;;;;5064296;28;20108;-71
2023/01/20 11:42:47;;;;;;;16.95;6.80;;;6.20;85.60;;;;;;5065206;28;20028;-72
2023/01/20 11:45:33;;;;;;;19.48;7.13;;;6.20;85.40;;;;;;5062842;28;20090;-73
2023/01/20 11:48:10;;;;;;;15.05;6.07;;;6.10;85.30;;;;;;5058779;28;20037;-72
2023/01/20 11:50:44;;;;;;;17.60;5.05;;;6.10;85.30;;;;;;5056045;28;20111;-72
2023/01/20 11:53:31;;;;;;;15.48;5.03;;;5.90;85.30;;;;;;5079625;28;20476;-72
2023/01/20 11:56:17;;;;;;;10.82;3.60;;;5.90;84.90;;;;;;5047063;28;20055;-72
2023/01/20 11:58:49;;;;;;;16.17;3.55;;;5.90;84.70;;;;;;5053243;28;20517;-72
2023/01/20 12:01:24;;;;;;;12.55;3.97;;;5.90;84.40;;;;;;5070216;28;20545;-72
2023/01/20 12:03:58;;;;;;;14.98;4.15;;;5.90;84.50;;;;;;5073668;28;20027;-72
2023/01/20 12:06:52;;;;;;;9.43;4.10;;;6.00;84.60;;;;;;5066094;28;20036;-73
2023/01/20 12:09:21;;;;;;;8.63;3.30;;;6.00;84.60;;;;;;5022121;28;20895;-73
2023/01/20 12:12:06;;;;;;;12.52;3.70;;;6.10;84.70;;;;;;5057512;28;20074;-73
2023/01/20 12:14:39;;;;;;;14.63;4.60;;;6.20;84.30;;;;;;5053502;28;20301;-72
2023/01/20 12:17:15;;;;;;;11.93;4.20;;;6.20;84.30;;;;;;5052660;28;20506;-73
2023/01/20 12:20:05;;;;;;;14.85;3.65;;;6.20;84.00;;;;;;5053614;28;20041;-72
2023/01/20 12:22:52;;;;;;;12.85;4.07;;;6.20;83.70;;;;;;5052606;28;20053;-73
2023/01/20 12:25:22;;;;;;;13.20;4.00;;;6.10;83.80;;;;;;5053297;28;20362;-73
2023/01/20 12:28:04;;;;;;;12.55;4.38;;;6.20;83.80;;;;;;5054877;28;20028;-73
2023/01/20 12:30:43;;;;;;;15.68;5.07;;;6.20;83.60;;;;;;5052236;28;20036;-73
2023/01/20 12:33:36;;;;;;;13.80;4.38;;;6.20;83.40;;;;;;5055989;28;20155;-73
2023/01/20 12:36:15;;;;;;;14.48;4.45;;;6.20;83.20;;;;;;5054495;28;20032;-72
2023/01/20 12:39:09;;;;;;;16.17;4.68;;;6.30;82.90;;;;;;5055357;28;20369;-74
2023/01/20 12:41:59;;;;;;;10.07;4.03;;;6.40;83.00;;;;;;5058253;28;20037;-74
2023/01/20 12:44:30;;;;;;;16.67;3.78;;;6.50;82.90;;;;;;5062916;28;20028;-73
2023/01/20 12:47:37;;;;;;;13.18;3.88;;;6.50;82.70;;;;;;5056705;28;20041;-73
2023/01/20 12:50:42;;;;;;;16.65;3.88;;;6.40;81.70;;;;;;5038156;28;20045;-74
2023/01/20 12:53:26;;;;;;;10.55;3.40;;;6.50;82.10;;;;;;5019928;28;20883;-74
2023/01/20 12:55:55;;;;;;;19.10;4.00;;;6.50;82.10;;;;;;5054717;28;20117;-74
2023/01/20 12:58:40;;;;;;;11.93;3.53;;;6.50;82.10;;;;;;5056168;28;20051;-73
2023/01/20 13:01:38;;;;;;;13.05;3.45;;;6.40;81.50;;;;;;5054661;28;20101;-74
2023/01/20 13:04:45;;;;;;;8.73;3.00;;;6.40;81.50;;;;;;5033301;28;20098;-73
2023/01/20 13:07:40;;;;;;;10.38;3.47;;;6.40;81.70;;;;;;4987097;28;20042;-73